createdAt,value
2022-11-02T00:01:30.849Z,91.90
2022-11-02T00:03:57.647Z,91.50
2022-11-02T00:06:24.420Z,91.70
2022-11-02T00:08:51.084Z,91.50
2022-11-02T00:11:17.812Z,91.90
2022-11-02T00:13:44.484Z,91.70
2022-11-02T00:16:15.662Z,91.60
2022-11-02T00:18:44.413Z,91.50
2022-11-02T00:21:11.507Z,91.30
2022-11-02T00:23:38.484Z,91.30
2022-11-02T00:26:05.385Z,91.40
2022-11-02T00:28:32.379Z,91.40
2022-11-02T00:31:01.465Z,91.60
2022-11-02T00:33:28.301Z,91.70
2022-11-02T00:35:55.757Z,91.70
2022-11-02T00:38:22.643Z,92.00
2022-11-02T00:40:49.314Z,92.50
2022-11-02T00:43:16.022Z,92.70
2022-11-02T00:45:42.797Z,93.00
2022-11-02T00:48:09.552Z,93.50
2022-11-02T00:50:36.284Z,93.80
2022-11-02T00:53:03.568Z,94.20
2022-11-02T00:55:30.245Z,94.50
2022-11-02T00:57:57.845Z,94.80
2022-11-02T01:00:24.595Z,94.90
2022-11-02T01:02:51.451Z,95.10
2022-11-02T01:05:18.255Z,95.40
2022-11-02T01:07:45.009Z,95.60
2022-11-02T01:10:12.216Z,95.90
2022-11-02T01:12:40.393Z,96.10
2022-11-02T01:15:08.455Z,96.20
2022-11-02T01:17:35.593Z,96.20
2022-11-02T01:20:02.988Z,96.30
2022-11-02T01:22:29.782Z,96.70
2022-11-02T01:24:56.500Z,97.00
2022-11-02T01:27:23.436Z,97.10
2022-11-02T01:29:50.092Z,97.50
2022-11-02T01:32:16.793Z,97.60
2022-11-02T01:34:45.403Z,97.40
2022-11-02T01:37:12.076Z,97.50
2022-11-02T01:39:38.781Z,97.60
2022-11-02T01:42:23.599Z,97.80
2022-11-02T01:44:50.548Z,98.00
2022-11-02T01:47:29.777Z,98.20
2022-11-02T01:50:12.136Z,98.70
2022-11-02T01:52:39.759Z,99.20
2022-11-02T01:55:10.251Z,99.20
2022-11-02T01:57:39.659Z,99.50
2022-11-02T02:00:09.926Z,99.50
2022-11-02T02:02:42.669Z,99.90
2022-11-02T02:05:12.979Z,99.90
2022-11-02T02:07:40.424Z,99.90
2022-11-02T02:10:08.628Z,99.90
2022-11-02T02:12:37.606Z,99.90
2022-11-02T02:15:04.718Z,99.90
2022-11-02T02:17:54.111Z,99.90
2022-11-02T02:20:41.063Z,99.90
2022-11-02T02:23:13.495Z,99.90
2022-11-02T02:26:07.903Z,99.90
2022-11-02T02:28:55.573Z,99.90
2022-11-02T02:31:38.131Z,99.90
2022-11-02T02:34:15.281Z,99.90
2022-11-02T02:37:26.737Z,99.90
2022-11-02T02:40:06.948Z,99.90
2022-11-02T02:42:39.935Z,99.90
2022-11-02T02:45:22.102Z,99.90
2022-11-02T02:48:03.086Z,99.90
2022-11-02T02:50:35.245Z,99.90
2022-11-02T02:53:05.500Z,99.90
2022-11-02T02:55:37.395Z,99.90
2022-11-02T02:58:07.320Z,99.90
2022-11-02T03:00:36.201Z,99.90
2022-11-02T03:03:04.987Z,99.90
2022-11-02T03:05:34.871Z,99.90
2022-11-02T03:08:15.796Z,99.90
2022-11-02T03:11:05.462Z,99.90
2022-11-02T03:14:05.116Z,99.90
2022-11-02T03:16:46.753Z,99.90
2022-11-02T03:19:34.535Z,99.90
2022-11-02T03:22:24.764Z,99.90
2022-11-02T03:24:54.740Z,99.90
2022-11-02T03:27:33.655Z,99.90
2022-11-02T03:30:28.343Z,99.90
2022-11-02T03:33:13.261Z,99.90
2022-11-02T03:35:58.601Z,99.90
2022-11-02T03:38:35.239Z,99.90
2022-11-02T03:41:04.980Z,99.90
2022-11-02T03:43:36.152Z,99.90
2022-11-02T03:46:05.796Z,99.90
2022-11-02T03:48:42.741Z,99.90
2022-11-02T03:51:14.672Z,99.90
2022-11-02T03:54:06.947Z,99.90
2022-11-02T03:56:46.301Z,99.90
2022-11-02T03:59:15.885Z,99.90
2022-11-02T04:01:49.153Z,99.90
2022-11-02T04:04:16.523Z,99.90
2022-11-02T04:06:45.176Z,99.90
2022-11-02T04:09:12.795Z,99.90
2022-11-02T04:11:59.848Z,99.90
2022-11-02T04:14:38.662Z,99.90
2022-11-02T04:17:25.086Z,99.90
2022-11-02T04:19:52.226Z,99.90
2022-11-02T04:22:38.440Z,99.90
2022-11-02T04:25:15.765Z,99.90
2022-11-02T04:27:50.867Z,99.90
2022-11-02T04:30:20.008Z,99.80
2022-11-02T04:33:07.441Z,99.70
2022-11-02T04:35:35.775Z,99.20
2022-11-02T04:38:21.032Z,99.00
2022-11-02T04:40:47.733Z,97.50
2022-11-02T04:43:14.493Z,96.30
2022-11-02T04:45:41.215Z,94.60
2022-11-02T04:48:09.505Z,94.00
2022-11-02T04:50:36.933Z,93.80
2022-11-02T04:53:05.428Z,92.60
2022-11-02T04:55:32.119Z,92.10
2022-11-02T04:57:58.846Z,91.30
2022-11-02T05:00:25.564Z,91.40
2022-11-02T05:02:52.319Z,90.90
2022-11-02T05:05:19.204Z,91.00
2022-11-02T05:07:46.001Z,90.80
2022-11-02T05:10:12.905Z,90.50
2022-11-02T05:12:39.769Z,89.80
2022-11-02T05:15:07.277Z,90.00
2022-11-02T05:17:34.156Z,89.80
2022-11-02T05:20:01.464Z,90.00
2022-11-02T05:22:28.444Z,90.30
2022-11-02T05:24:55.579Z,90.30
2022-11-02T05:27:22.526Z,90.40
2022-11-02T05:29:49.398Z,90.40
2022-11-02T05:32:16.157Z,90.50
2022-11-02T05:34:42.800Z,90.60
2022-11-02T05:37:09.455Z,90.90
2022-11-02T05:39:37.212Z,90.60
2022-11-02T05:42:04.145Z,90.60
2022-11-02T05:44:30.871Z,90.70
2022-11-02T05:46:57.795Z,90.90
2022-11-02T05:49:24.519Z,90.80
2022-11-02T05:51:51.223Z,91.00
2022-11-02T05:54:18.191Z,91.00
2022-11-02T05:56:44.928Z,91.50
2022-11-02T05:59:11.603Z,91.60
2022-11-02T06:01:39.139Z,91.30
2022-11-02T06:04:06.627Z,91.00
2022-11-02T06:06:33.386Z,91.20
2022-11-02T06:09:05.787Z,90.80
2022-11-02T06:11:33.672Z,90.40
2022-11-02T06:14:00.430Z,90.70
2022-11-02T06:16:27.111Z,90.40
2022-11-02T06:18:53.923Z,90.30
2022-11-02T06:21:20.904Z,89.60
2022-11-02T06:23:48.625Z,88.90
2022-11-02T06:26:15.375Z,89.30
2022-11-02T06:28:42.594Z,89.20
2022-11-02T06:31:09.376Z,89.20
2022-11-02T06:33:36.116Z,88.90
2022-11-02T06:36:02.947Z,89.10
2022-11-02T06:38:29.659Z,90.00
2022-11-02T06:41:05.588Z,90.50
2022-11-02T06:43:33.680Z,90.40
2022-11-02T06:46:00.367Z,90.20
2022-11-02T06:48:33.293Z,90.70
2022-11-02T06:51:02.509Z,90.90
2022-11-02T06:53:29.185Z,91.10
2022-11-02T06:55:57.627Z,91.00
2022-11-02T06:58:25.076Z,91.10
2022-11-02T07:01:00.684Z,91.00
2022-11-02T07:03:28.333Z,91.40
2022-11-02T07:05:55.066Z,91.80
2022-11-02T07:08:22.411Z,91.70
2022-11-02T07:10:49.582Z,91.90
2022-11-02T07:13:16.905Z,91.80
2022-11-02T07:15:43.557Z,92.00
2022-11-02T07:18:10.399Z,91.70
2022-11-02T07:20:37.306Z,91.80
2022-11-02T07:23:05.434Z,92.30
2022-11-02T07:25:33.453Z,91.70
2022-11-02T07:28:01.698Z,92.00
2022-11-02T07:30:29.759Z,92.60
2022-11-02T07:32:56.771Z,92.80
2022-11-02T07:35:23.907Z,92.80
2022-11-02T07:38:01.510Z,93.20
2022-11-02T07:40:30.214Z,93.50
2022-11-02T07:42:58.344Z,93.30
2022-11-02T07:45:26.020Z,93.50
2022-11-02T07:47:52.984Z,93.80
2022-11-02T07:50:22.659Z,93.70
2022-11-02T07:52:50.225Z,94.20
2022-11-02T07:55:19.283Z,93.70
2022-11-02T07:58:00.271Z,94.10
2022-11-02T08:00:31.453Z,94.60
2022-11-02T08:02:59.780Z,94.80
2022-11-02T08:05:28.044Z,93.90
2022-11-02T08:07:58.658Z,93.70
2022-11-02T08:10:26.054Z,93.00
2022-11-02T08:12:53.016Z,92.30
2022-11-02T08:15:19.722Z,92.70
2022-11-02T08:17:46.740Z,91.40
2022-11-02T08:20:13.640Z,91.50
2022-11-02T08:22:41.041Z,91.10
2022-11-02T08:25:08.398Z,90.00
2022-11-02T08:27:35.223Z,87.50
2022-11-02T08:30:02.033Z,86.00
2022-11-02T08:32:28.728Z,87.10
2022-11-02T08:34:55.399Z,85.60
2022-11-02T08:37:22.060Z,84.80
2022-11-02T08:39:48.841Z,81.80
2022-11-02T08:42:15.530Z,82.20
2022-11-02T08:44:42.787Z,79.00
2022-11-02T08:47:09.894Z,77.50
2022-11-02T08:49:36.685Z,75.70
2022-11-02T08:52:03.503Z,76.30
2022-11-02T08:54:30.220Z,75.10
2022-11-02T08:56:56.887Z,71.40
2022-11-02T08:59:23.543Z,70.50
2022-11-02T09:01:50.250Z,67.30
2022-11-02T09:04:17.221Z,68.00
2022-11-02T09:06:44.133Z,67.70
2022-11-02T09:09:10.869Z,66.30
2022-11-02T09:11:37.530Z,65.60
2022-11-02T09:14:04.381Z,61.90
2022-11-02T09:16:31.130Z,59.00
2022-11-02T09:18:57.829Z,58.50
2022-11-02T09:21:24.460Z,56.40
2022-11-02T09:23:51.127Z,57.10
2022-11-02T09:26:17.908Z,55.30
2022-11-02T09:28:44.612Z,54.50
2022-11-02T09:31:11.922Z,54.30
2022-11-02T09:33:38.979Z,53.90
2022-11-02T09:36:06.447Z,52.30
2022-11-02T09:38:33.575Z,49.80
2022-11-02T09:41:18.313Z,48.70
2022-11-02T09:44:07.773Z,48.20
2022-11-02T09:46:40.239Z,46.60
2022-11-02T09:49:12.195Z,44.70
2022-11-02T09:51:44.129Z,45.10
2022-11-02T09:54:28.813Z,44.50
2022-11-02T09:57:00.850Z,43.60
2022-11-02T09:59:28.013Z,43.50
2022-11-02T10:02:13.107Z,42.60
2022-11-02T10:04:42.732Z,42.30
2022-11-02T10:07:15.585Z,42.10
2022-11-02T10:09:51.151Z,40.70
2022-11-02T10:12:33.741Z,40.80
2022-11-02T10:15:10.083Z,40.10
2022-11-02T10:17:40.245Z,39.20
2022-11-02T10:20:27.873Z,39.60
2022-11-02T10:23:06.113Z,38.70
2022-11-02T10:25:35.135Z,37.40
2022-11-02T10:28:16.743Z,37.20
2022-11-02T10:30:44.885Z,35.90
2022-11-02T10:33:16.121Z,36.20
2022-11-02T10:36:16.945Z,36.40
2022-11-02T10:38:44.239Z,36.10
2022-11-02T10:41:49.783Z,34.50
2022-11-02T10:44:24.245Z,33.50
2022-11-02T10:47:13.337Z,33.60
2022-11-02T10:49:43.192Z,32.30
2022-11-02T10:52:15.649Z,31.40
2022-11-02T10:54:42.629Z,31.20
2022-11-02T10:57:13.895Z,30.90
2022-11-02T10:59:40.753Z,29.50
2022-11-02T11:02:13.565Z,29.50
2022-11-02T11:04:42.131Z,29.30
2022-11-02T11:07:22.402Z,28.70
2022-11-02T11:09:54.985Z,28.50
2022-11-02T11:12:23.647Z,28.70
2022-11-02T11:20:34.405Z,27.80
2022-11-02T11:23:20.262Z,28.30
2022-11-02T11:26:12.131Z,28.80
2022-11-02T11:28:52.075Z,28.90
2022-11-02T11:31:19.190Z,28.60
2022-11-02T11:34:00.134Z,28.40
2022-11-02T11:36:35.249Z,28.60
2022-11-02T11:39:20.827Z,28.60
2022-11-02T11:41:47.763Z,28.90
2022-11-02T11:44:15.515Z,29.30
2022-11-02T11:46:48.686Z,29.10
2022-11-02T11:52:36.457Z,29.00
2022-11-02T11:55:24.263Z,28.90
2022-11-02T11:58:14.674Z,29.00
2022-11-02T12:00:42.095Z,27.70
2022-11-02T12:03:11.856Z,27.40
2022-11-02T12:06:01.790Z,26.80
2022-11-02T12:08:33.880Z,26.20
2022-11-02T12:11:05.352Z,26.40
2022-11-02T12:13:50.068Z,26.50
2022-11-02T12:16:19.742Z,26.20
2022-11-02T12:19:04.668Z,26.00
2022-11-02T12:21:37.289Z,25.90
2022-11-02T12:24:17.525Z,26.10
2022-11-02T12:27:05.772Z,26.40
2022-11-02T12:29:46.395Z,26.60
2022-11-02T12:32:43.594Z,26.20
2022-11-02T12:35:44.537Z,25.40
2022-11-02T12:38:21.917Z,24.80
2022-11-02T12:41:00.176Z,24.20
2022-11-02T12:43:40.781Z,23.10
2022-11-02T12:46:16.698Z,22.90
2022-11-02T12:48:57.742Z,22.40
2022-11-02T12:51:30.062Z,22.60
2022-11-02T12:54:03.020Z,21.80
2022-11-02T12:56:51.330Z,21.70
2022-11-02T12:59:38.684Z,21.60
2022-11-02T13:02:09.809Z,21.90
2022-11-02T13:04:47.371Z,21.70
2022-11-02T13:07:18.709Z,21.10
2022-11-02T13:09:51.582Z,21.10
2022-11-02T13:12:22.568Z,21.20
2022-11-02T13:14:52.151Z,21.70
2022-11-02T13:17:21.709Z,21.00
2022-11-02T13:19:53.504Z,20.50
2022-11-02T13:22:24.131Z,20.40
2022-11-02T13:24:56.382Z,20.80
2022-11-02T13:27:39.212Z,20.30
2022-11-02T13:30:18.375Z,20.10
2022-11-02T13:32:54.018Z,20.30
2022-11-02T13:35:30.672Z,20.10
2022-11-02T13:38:09.088Z,19.90
2022-11-02T13:41:14.841Z,19.10
2022-11-02T13:44:07.741Z,18.60
2022-11-02T13:47:09.427Z,18.00
2022-11-02T13:49:39.664Z,17.90
2022-11-02T13:52:15.878Z,17.90
2022-11-02T13:54:51.107Z,18.00
2022-11-02T13:57:25.240Z,18.50
2022-11-02T13:59:52.097Z,18.80
2022-11-02T14:02:21.173Z,19.40
2022-11-02T14:04:48.833Z,19.70
2022-11-02T14:07:28.723Z,19.90
2022-11-02T14:10:18.966Z,19.90
2022-11-02T14:12:47.824Z,20.00
2022-11-02T14:15:14.477Z,20.30
2022-11-02T14:17:53.497Z,20.50
2022-11-02T14:20:38.216Z,20.70
2022-11-02T14:23:11.047Z,20.80
2022-11-02T14:25:53.592Z,20.80
2022-11-02T14:28:23.575Z,21.20
2022-11-02T14:31:03.201Z,21.70
2022-11-02T14:33:55.496Z,22.10
2022-11-02T14:36:39.363Z,22.30
2022-11-02T14:39:39.894Z,22.70
2022-11-02T14:42:41.726Z,22.80
2022-11-02T14:45:41.895Z,23.10
2022-11-02T14:48:16.167Z,23.40
2022-11-02T14:51:13.981Z,23.60
2022-11-02T14:53:41.852Z,23.90
2022-11-02T14:56:08.745Z,23.50
2022-11-02T14:58:40.691Z,23.90
2022-11-02T15:01:14.447Z,23.90
2022-11-02T15:03:43.085Z,24.30
2022-11-02T15:06:19.094Z,24.20
2022-11-02T15:08:55.762Z,24.50
2022-11-02T15:11:51.188Z,24.30
2022-11-02T15:14:52.130Z,24.50
2022-11-02T15:17:18.774Z,24.60
2022-11-02T15:20:09.137Z,24.90
2022-11-02T15:22:41.763Z,24.80
2022-11-02T15:25:31.054Z,25.20
2022-11-02T15:28:10.741Z,24.70
2022-11-02T15:30:56.593Z,24.90
2022-11-02T15:33:36.029Z,25.00
2022-11-02T15:36:04.876Z,24.90
2022-11-02T15:38:36.855Z,25.00
2022-11-02T15:41:45.941Z,25.10
2022-11-02T15:44:19.168Z,25.20
2022-11-02T15:46:53.474Z,25.30
2022-11-02T15:49:44.721Z,25.70
2022-11-02T15:52:33.023Z,25.90
2022-11-02T15:55:15.407Z,26.10
2022-11-02T15:57:53.940Z,25.80
2022-11-02T16:00:22.384Z,25.80
2022-11-02T16:02:51.900Z,25.80
2022-11-02T16:05:20.682Z,26.00
2022-11-02T16:08:10.063Z,25.70
2022-11-02T16:10:36.652Z,25.80
2022-11-02T16:13:19.291Z,26.00
2022-11-02T16:15:48.785Z,26.20
2022-11-02T16:18:42.739Z,26.50
2022-11-02T16:21:15.307Z,26.50
2022-11-02T16:23:52.082Z,27.10
2022-11-02T16:26:22.277Z,26.70
2022-11-02T16:28:51.477Z,26.50
2022-11-02T16:31:22.950Z,26.80
2022-11-02T16:34:09.332Z,26.90
2022-11-02T16:36:37.777Z,26.80
2022-11-02T16:39:13.507Z,27.10
2022-11-02T16:41:41.211Z,27.40
2022-11-02T16:44:16.327Z,27.70
2022-11-02T16:46:53.338Z,28.00
2022-11-02T16:49:22.150Z,28.10
2022-11-02T16:52:00.351Z,28.90
2022-11-02T16:54:30.515Z,28.70
2022-11-02T16:57:12.527Z,28.90
2022-11-02T16:59:54.561Z,29.20
2022-11-02T17:02:41.718Z,29.50
2022-11-02T17:05:19.452Z,29.80
2022-11-02T17:08:11.689Z,30.20
2022-11-02T17:10:39.104Z,30.30
2022-11-02T17:13:15.885Z,30.80
2022-11-02T17:15:51.419Z,31.10
2022-11-02T17:18:29.070Z,31.30
2022-11-02T17:21:13.857Z,31.60
2022-11-02T17:23:43.275Z,31.90
2022-11-02T17:26:25.173Z,32.00
2022-11-02T17:29:26.716Z,32.20
2022-11-02T17:32:00.472Z,32.00
2022-11-02T17:34:27.855Z,32.60
2022-11-02T17:36:54.839Z,32.60
2022-11-02T17:39:21.550Z,32.70
2022-11-02T17:42:13.659Z,32.70
2022-11-02T17:44:41.428Z,33.30
2022-11-02T17:47:16.618Z,33.60
2022-11-02T17:49:43.363Z,34.30
2022-11-02T17:52:13.940Z,34.30
2022-11-02T17:54:40.589Z,34.90
2022-11-02T17:57:14.207Z,35.20
2022-11-02T17:59:41.033Z,35.40
2022-11-02T18:02:16.392Z,35.70
2022-11-02T18:07:17.140Z,36.00
2022-11-02T18:09:43.832Z,36.40
2022-11-02T18:12:14.550Z,37.20
2022-11-02T18:14:42.255Z,38.00
2022-11-02T18:17:09.236Z,38.10
2022-11-02T18:19:35.969Z,38.50
2022-11-02T18:22:02.975Z,39.10
2022-11-02T18:24:29.713Z,39.00
2022-11-02T18:26:56.396Z,39.60
2022-11-02T18:29:23.093Z,39.70
2022-11-02T18:31:50.525Z,40.70
2022-11-02T18:34:17.811Z,40.90
2022-11-02T18:36:44.536Z,41.70
2022-11-02T18:39:11.510Z,41.50
2022-11-02T18:41:40.416Z,42.50
2022-11-02T18:44:14.971Z,42.90
2022-11-02T18:46:42.863Z,43.70
2022-11-02T18:49:09.624Z,44.80
2022-11-02T18:51:36.279Z,45.40
2022-11-02T18:54:05.604Z,46.50
2022-11-02T18:56:32.428Z,47.80
2022-11-02T18:58:59.375Z,48.60
2022-11-02T19:01:27.085Z,50.30
2022-11-02T19:03:56.507Z,50.20
2022-11-02T19:06:43.726Z,51.30
2022-11-02T19:09:21.397Z,51.80
2022-11-02T19:12:09.960Z,51.80
2022-11-02T19:14:39.232Z,51.80
2022-11-02T19:17:06.941Z,53.50
2022-11-02T19:19:34.200Z,53.80
2022-11-02T19:22:01.250Z,54.30
2022-11-02T19:24:28.478Z,55.10
2022-11-02T19:26:55.510Z,55.70
2022-11-02T19:29:24.980Z,55.90
2022-11-02T19:31:51.629Z,56.70
2022-11-02T19:34:18.348Z,57.40
2022-11-02T19:36:45.052Z,58.00
2022-11-02T19:39:11.976Z,58.10
2022-11-02T19:41:38.864Z,59.50
2022-11-02T19:44:06.242Z,59.90
2022-11-02T19:46:33.655Z,60.90
2022-11-02T19:49:00.366Z,62.00
2022-11-02T19:51:29.714Z,63.10
2022-11-02T19:53:58.516Z,63.80
2022-11-02T19:56:27.551Z,67.70
2022-11-02T19:58:55.031Z,70.30
2022-11-02T20:01:23.322Z,73.50
2022-11-02T20:03:50.968Z,74.00
2022-11-02T20:06:27.084Z,74.00
2022-11-02T20:08:55.877Z,75.10
2022-11-02T20:11:24.630Z,76.70
2022-11-02T20:13:52.061Z,78.90
2022-11-02T20:16:20.127Z,80.80
2022-11-02T20:18:48.696Z,81.60
2022-11-02T20:21:18.464Z,84.50
2022-11-02T20:23:46.016Z,85.60
2022-11-02T20:26:21.391Z,86.50
2022-11-02T20:28:49.089Z,88.20
2022-11-02T20:31:21.177Z,90.50
2022-11-02T20:33:48.705Z,90.90
2022-11-02T20:36:16.438Z,90.90
2022-11-02T20:38:43.178Z,90.50
2022-11-02T20:41:11.677Z,90.30
2022-11-02T20:43:40.687Z,90.00
2022-11-02T20:46:35.951Z,90.90
2022-11-02T20:49:01.457Z,90.30
2022-11-02T20:51:35.640Z,90.30
2022-11-02T20:54:03.437Z,90.30
2022-11-02T20:56:30.259Z,90.90
2022-11-02T20:58:57.066Z,91.70
2022-11-02T21:01:23.898Z,92.00
2022-11-02T21:03:50.732Z,92.00
2022-11-02T21:06:17.496Z,91.90
2022-11-02T21:08:44.409Z,92.30
2022-11-02T21:11:29.873Z,92.80
2022-11-02T21:13:56.857Z,93.10
2022-11-02T21:16:23.969Z,92.90
2022-11-02T21:18:50.621Z,93.20
2022-11-02T21:21:19.053Z,93.20
2022-11-02T21:23:46.073Z,93.50
2022-11-02T21:26:14.477Z,94.40
2022-11-02T21:28:44.547Z,94.70
2022-11-02T21:31:15.409Z,94.80
2022-11-02T21:33:42.997Z,95.60
2022-11-02T21:36:10.593Z,95.70
2022-11-02T21:38:38.335Z,95.80
2022-11-02T21:41:07.635Z,95.90
2022-11-02T21:43:38.456Z,96.10
2022-11-02T21:46:06.385Z,96.10
2022-11-02T21:48:35.923Z,96.80
2022-11-02T21:51:11.648Z,97.30
2022-11-02T21:53:41.031Z,97.40
2022-11-02T21:56:10.307Z,97.80
2022-11-02T21:58:41.488Z,97.90
2022-11-02T22:01:39.766Z,98.00
2022-11-02T22:04:07.587Z,98.50
2022-11-02T22:06:34.808Z,99.00
2022-11-02T22:09:02.009Z,98.90
2022-11-02T22:11:28.903Z,99.10
2022-11-02T22:13:58.584Z,98.60
2022-11-02T22:16:25.259Z,99.50
2022-11-02T22:18:54.669Z,99.10
2022-11-02T22:21:22.182Z,99.30
2022-11-02T22:23:49.968Z,99.10
2022-11-02T22:26:22.350Z,99.20
2022-11-02T22:28:49.997Z,99.00
2022-11-02T22:31:25.198Z,98.90
2022-11-02T22:33:54.276Z,99.20
2022-11-02T22:36:24.085Z,99.00
2022-11-02T22:38:53.371Z,98.80
2022-11-02T22:41:21.489Z,98.70
2022-11-02T22:43:57.123Z,98.90
2022-11-02T22:46:25.864Z,98.60
2022-11-02T22:48:54.715Z,98.50
2022-11-02T22:51:23.469Z,98.70
2022-11-02T22:53:50.455Z,98.90
2022-11-02T22:56:18.880Z,98.70
2022-11-02T22:58:47.488Z,99.00
2022-11-02T23:01:18.517Z,99.20
2022-11-02T23:03:46.411Z,99.00
2022-11-02T23:06:14.290Z,99.00
2022-11-02T23:08:43.160Z,99.20
2022-11-02T23:11:23.244Z,99.50
2022-11-02T23:14:10.973Z,99.70
2022-11-02T23:16:39.164Z,99.80
2022-11-02T23:19:29.640Z,99.60
2022-11-02T23:22:20.589Z,99.90
2022-11-02T23:25:14.088Z,99.90
2022-11-02T23:28:03.749Z,99.90
2022-11-02T23:30:51.917Z,99.90
2022-11-02T23:33:19.428Z,99.90
2022-11-02T23:36:04.733Z,99.90
2022-11-02T23:38:49.795Z,99.90
2022-11-02T23:41:18.028Z,99.90
2022-11-02T23:43:45.165Z,99.90
2022-11-02T23:46:12.320Z,99.90
2022-11-02T23:48:41.355Z,99.90
2022-11-02T23:51:28.562Z,99.90
2022-11-02T23:54:14.508Z,99.90
2022-11-02T23:56:43.881Z,99.90
2022-11-02T23:59:11.853Z,99.90
